sensor_id;sensor_type;location;lat;lon;timestamp;temperature;humidity
65876;HTU21D;52657;51.128;5.938;2023-06-01T00:02:23;19.70;57.20
65876;HTU21D;52657;51.128;5.938;2023-06-01T00:04:49;19.65;57.39
65876;HTU21D;52657;51.128;5.938;2023-06-01T00:07:16;19.58;57.57
65876;HTU21D;52657;51.128;5.938;2023-06-01T00:09:42;19.52;57.58
65876;HTU21D;52657;51.128;5.938;2023-06-01T00:12:08;19.44;57.84
65876;HTU21D;52657;51.128;5.938;2023-06-01T00:14:34;19.44;57.96
65876;HTU21D;52657;51.128;5.938;2023-06-01T00:17:00;19.47;57.96
65876;HTU21D;52657;51.128;5.938;2023-06-01T00:19:25;19.47;57.98
65876;HTU21D;52657;51.128;5.938;2023-06-01T00:21:53;19.53;57.84
65876;HTU21D;52657;51.128;5.938;2023-06-01T00:24:22;19.46;58.02
65876;HTU21D;52657;51.128;5.938;2023-06-01T00:26:51;19.50;58.00
65876;HTU21D;52657;51.128;5.938;2023-06-01T00:29:17;19.43;57.92
65876;HTU21D;52657;51.128;5.938;2023-06-01T00:31:43;19.31;58.23
65876;HTU21D;52657;51.128;5.938;2023-06-01T00:34:10;19.14;58.67
65876;HTU21D;52657;51.128;5.938;2023-06-01T00:36:39;19.08;58.94
65876;HTU21D;52657;51.128;5.938;2023-06-01T00:39:06;19.00;59.00
65876;HTU21D;52657;51.128;5.938;2023-06-01T00:41:32;18.88;59.37
65876;HTU21D;52657;51.128;5.938;2023-06-01T00:43:58;18.87;59.19
65876;HTU21D;52657;51.128;5.938;2023-06-01T00:46:25;18.73;59.55
65876;HTU21D;52657;51.128;5.938;2023-06-01T00:48:55;18.69;59.67
65876;HTU21D;52657;51.128;5.938;2023-06-01T00:51:21;18.54;59.99
65876;HTU21D;52657;51.128;5.938;2023-06-01T00:53:48;18.48;60.40
65876;HTU21D;52657;51.128;5.938;2023-06-01T00:56:14;18.34;60.70
65876;HTU21D;52657;51.128;5.938;2023-06-01T00:58:41;18.33;60.73
65876;HTU21D;52657;51.128;5.938;2023-06-01T01:01:07;18.26;60.99
65876;HTU21D;52657;51.128;5.938;2023-06-01T01:03:34;18.19;60.97
65876;HTU21D;52657;51.128;5.938;2023-06-01T01:06:16;18.06;61.34
65876;HTU21D;52657;51.128;5.938;2023-06-01T01:09:06;18.04;61.44
65876;HTU21D;52657;51.128;5.938;2023-06-01T01:11:37;18.06;61.42
65876;HTU21D;52657;51.128;5.938;2023-06-01T01:14:22;18.02;61.40
65876;HTU21D;52657;51.128;5.938;2023-06-01T01:19:57;17.91;61.61
65876;HTU21D;52657;51.128;5.938;2023-06-01T01:25:59;17.77;61.92
65876;HTU21D;52657;51.128;5.938;2023-06-01T01:28:42;17.74;62.10
65876;HTU21D;52657;51.128;5.938;2023-06-01T01:31:18;17.69;62.05
65876;HTU21D;52657;51.128;5.938;2023-06-01T01:33:46;17.66;62.09
65876;HTU21D;52657;51.128;5.938;2023-06-01T01:36:15;17.64;62.02
65876;HTU21D;52657;51.128;5.938;2023-06-01T01:38:41;17.53;62.35
65876;HTU21D;52657;51.128;5.938;2023-06-01T01:41:07;17.49;62.57
65876;HTU21D;52657;51.128;5.938;2023-06-01T01:43:36;17.46;62.52
65876;HTU21D;52657;51.128;5.938;2023-06-01T01:46:30;17.37;62.91
65876;HTU21D;52657;51.128;5.938;2023-06-01T01:54:43;17.32;63.02
65876;HTU21D;52657;51.128;5.938;2023-06-01T01:57:13;17.30;63.03
65876;HTU21D;52657;51.128;5.938;2023-06-01T01:59:41;17.25;62.89
65876;HTU21D;52657;51.128;5.938;2023-06-01T02:02:08;17.20;63.10
65876;HTU21D;52657;51.128;5.938;2023-06-01T02:04:39;17.13;63.25
65876;HTU21D;52657;51.128;5.938;2023-06-01T02:07:06;17.07;63.44
65876;HTU21D;52657;51.128;5.938;2023-06-01T02:09:32;16.93;63.87
65876;HTU21D;52657;51.128;5.938;2023-06-01T02:11:58;16.91;63.96
65876;HTU21D;52657;51.128;5.938;2023-06-01T02:14:24;16.81;64.04
65876;HTU21D;52657;51.128;5.938;2023-06-01T02:16:49;16.74;64.37
65876;HTU21D;52657;51.128;5.938;2023-06-01T02:19:15;16.74;64.34
65876;HTU21D;52657;51.128;5.938;2023-06-01T02:21:44;16.64;64.56
65876;HTU21D;52657;51.128;5.938;2023-06-01T02:24:10;16.67;64.47
65876;HTU21D;52657;51.128;5.938;2023-06-01T02:26:36;16.67;64.38
65876;HTU21D;52657;51.128;5.938;2023-06-01T02:29:05;16.59;64.53
65876;HTU21D;52657;51.128;5.938;2023-06-01T02:31:32;16.47;64.76
65876;HTU21D;52657;51.128;5.938;2023-06-01T02:33:58;16.39;64.85
65876;HTU21D;52657;51.128;5.938;2023-06-01T02:36:28;16.33;65.02
65876;HTU21D;52657;51.128;5.938;2023-06-01T02:38:58;16.18;65.69
65876;HTU21D;52657;51.128;5.938;2023-06-01T02:41:24;16.08;65.79
65876;HTU21D;52657;51.128;5.938;2023-06-01T02:43:51;16.05;65.92
65876;HTU21D;52657;51.128;5.938;2023-06-01T02:46:20;16.07;65.85
65876;HTU21D;52657;51.128;5.938;2023-06-01T02:48:46;16.02;66.02
65876;HTU21D;52657;51.128;5.938;2023-06-01T02:51:13;16.02;65.93
65876;HTU21D;52657;51.128;5.938;2023-06-01T02:53:41;16.01;65.85
65876;HTU21D;52657;51.128;5.938;2023-06-01T02:56:09;15.92;66.19
65876;HTU21D;52657;51.128;5.938;2023-06-01T02:58:46;15.85;66.21
65876;HTU21D;52657;51.128;5.938;2023-06-01T03:01:31;15.82;66.06
65876;HTU21D;52657;51.128;5.938;2023-06-01T03:04:02;15.76;66.14
65876;HTU21D;52657;51.128;5.938;2023-06-01T03:06:33;15.69;66.35
65876;HTU21D;52657;51.128;5.938;2023-06-01T03:09:21;15.62;66.49
65876;HTU21D;52657;51.128;5.938;2023-06-01T03:11:56;15.61;66.75
65876;HTU21D;52657;51.128;5.938;2023-06-01T03:14:22;15.60;66.66
65876;HTU21D;52657;51.128;5.938;2023-06-01T03:16:48;15.51;67.09
65876;HTU21D;52657;51.128;5.938;2023-06-01T03:19:19;15.45;67.10
65876;HTU21D;52657;51.128;5.938;2023-06-01T03:21:48;15.30;67.36
65876;HTU21D;52657;51.128;5.938;2023-06-01T03:24:18;15.28;67.43
65876;HTU21D;52657;51.128;5.938;2023-06-01T03:26:44;15.22;67.52
65876;HTU21D;52657;51.128;5.938;2023-06-01T03:29:09;15.17;67.75
65876;HTU21D;52657;51.128;5.938;2023-06-01T03:31:36;15.08;67.98
65876;HTU21D;52657;51.128;5.938;2023-06-01T03:34:02;15.06;68.20
65876;HTU21D;52657;51.128;5.938;2023-06-01T03:36:28;15.04;68.34
65876;HTU21D;52657;51.128;5.938;2023-06-01T03:38:54;15.04;68.27
65876;HTU21D;52657;51.128;5.938;2023-06-01T03:41:22;15.01;68.52
65876;HTU21D;52657;51.128;5.938;2023-06-01T03:43:48;14.96;68.68
65876;HTU21D;52657;51.128;5.938;2023-06-01T03:46:14;14.97;68.51
65876;HTU21D;52657;51.128;5.938;2023-06-01T03:48:40;15.01;68.53
65876;HTU21D;52657;51.128;5.938;2023-06-01T03:51:07;14.91;68.71
65876;HTU21D;52657;51.128;5.938;2023-06-01T03:53:34;14.83;69.13
65876;HTU21D;52657;51.128;5.938;2023-06-01T03:55:59;14.82;69.30
65876;HTU21D;52657;51.128;5.938;2023-06-01T03:58:31;14.86;69.08
65876;HTU21D;52657;51.128;5.938;2023-06-01T04:00:57;14.82;69.03
65876;HTU21D;52657;51.128;5.938;2023-06-01T04:03:23;14.77;69.26
65876;HTU21D;52657;51.128;5.938;2023-06-01T04:05:49;14.81;69.39
65876;HTU21D;52657;51.128;5.938;2023-06-01T04:08:15;14.85;69.32
65876;HTU21D;52657;51.128;5.938;2023-06-01T04:10:42;14.87;69.07
65876;HTU21D;52657;51.128;5.938;2023-06-01T04:13:09;14.86;69.05
65876;HTU21D;52657;51.128;5.938;2023-06-01T04:15:35;14.80;69.15
65876;HTU21D;52657;51.128;5.938;2023-06-01T04:18:02;14.80;69.00
65876;HTU21D;52657;51.128;5.938;2023-06-01T04:20:41;14.79;68.94
65876;HTU21D;52657;51.128;5.938;2023-06-01T04:23:07;14.77;68.97
65876;HTU21D;52657;51.128;5.938;2023-06-01T04:25:33;14.72;69.04
65876;HTU21D;52657;51.128;5.938;2023-06-01T04:27:58;14.74;68.78
65876;HTU21D;52657;51.128;5.938;2023-06-01T04:30:29;14.75;68.81
65876;HTU21D;52657;51.128;5.938;2023-06-01T04:32:58;14.72;68.54
65876;HTU21D;52657;51.128;5.938;2023-06-01T04:35:26;14.66;68.65
65876;HTU21D;52657;51.128;5.938;2023-06-01T04:37:53;14.63;68.70
65876;HTU21D;52657;51.128;5.938;2023-06-01T04:40:19;14.52;68.87
65876;HTU21D;52657;51.128;5.938;2023-06-01T04:42:45;14.45;69.02
65876;HTU21D;52657;51.128;5.938;2023-06-01T04:45:15;14.38;69.38
65876;HTU21D;52657;51.128;5.938;2023-06-01T04:47:42;14.43;69.48
65876;HTU21D;52657;51.128;5.938;2023-06-01T04:50:16;14.51;69.20
65876;HTU21D;52657;51.128;5.938;2023-06-01T04:52:44;14.59;68.87
65876;HTU21D;52657;51.128;5.938;2023-06-01T04:55:11;14.68;68.35
65876;HTU21D;52657;51.128;5.938;2023-06-01T04:57:39;14.62;68.41
65876;HTU21D;52657;51.128;5.938;2023-06-01T05:00:09;14.72;68.01
65876;HTU21D;52657;51.128;5.938;2023-06-01T05:02:40;14.69;67.91
65876;HTU21D;52657;51.128;5.938;2023-06-01T05:05:07;14.65;68.11
65876;HTU21D;52657;51.128;5.938;2023-06-01T05:07:36;14.64;67.79
65876;HTU21D;52657;51.128;5.938;2023-06-01T05:10:04;14.55;67.96
65876;HTU21D;52657;51.128;5.938;2023-06-01T05:12:36;14.50;68.19
65876;HTU21D;52657;51.128;5.938;2023-06-01T05:15:05;14.51;68.46
65876;HTU21D;52657;51.128;5.938;2023-06-01T05:17:32;14.55;68.24
65876;HTU21D;52657;51.128;5.938;2023-06-01T05:19:59;14.64;68.08
65876;HTU21D;52657;51.128;5.938;2023-06-01T05:22:26;14.69;67.64
65876;HTU21D;52657;51.128;5.938;2023-06-01T05:24:51;14.63;67.94
65876;HTU21D;52657;51.128;5.938;2023-06-01T05:27:18;14.73;67.69
65876;HTU21D;52657;51.128;5.938;2023-06-01T05:29:43;14.77;67.60
65876;HTU21D;52657;51.128;5.938;2023-06-01T05:32:09;14.85;67.04
65876;HTU21D;52657;51.128;5.938;2023-06-01T05:34:36;14.81;66.68
65876;HTU21D;52657;51.128;5.938;2023-06-01T05:37:02;14.84;66.94
65876;HTU21D;52657;51.128;5.938;2023-06-01T05:39:28;14.88;66.62
65876;HTU21D;52657;51.128;5.938;2023-06-01T05:41:55;14.86;66.50
65876;HTU21D;52657;51.128;5.938;2023-06-01T05:44:22;14.91;66.53
65876;HTU21D;52657;51.128;5.938;2023-06-01T05:46:48;14.95;66.41
65876;HTU21D;52657;51.128;5.938;2023-06-01T05:49:15;15.03;66.27
65876;HTU21D;52657;51.128;5.938;2023-06-01T05:51:41;15.14;65.98
65876;HTU21D;52657;51.128;5.938;2023-06-01T05:54:09;15.25;65.29
65876;HTU21D;52657;51.128;5.938;2023-06-01T05:56:35;15.14;65.17
65876;HTU21D;52657;51.128;5.938;2023-06-01T05:59:07;15.07;65.33
65876;HTU21D;52657;51.128;5.938;2023-06-01T06:01:33;15.00;65.69
65876;HTU21D;52657;51.128;5.938;2023-06-01T06:03:59;14.97;65.80
65876;HTU21D;52657;51.128;5.938;2023-06-01T06:06:25;14.98;66.12
65876;HTU21D;52657;51.128;5.938;2023-06-01T06:08:51;15.12;65.78
65876;HTU21D;52657;51.128;5.938;2023-06-01T06:11:17;15.14;65.33
65876;HTU21D;52657;51.128;5.938;2023-06-01T06:13:43;15.14;65.40
65876;HTU21D;52657;51.128;5.938;2023-06-01T06:16:09;15.15;65.27
65876;HTU21D;52657;51.128;5.938;2023-06-01T06:18:35;15.24;64.95
65876;HTU21D;52657;51.128;5.938;2023-06-01T06:21:01;15.37;64.23
65876;HTU21D;52657;51.128;5.938;2023-06-01T06:23:27;15.37;64.08
65876;HTU21D;52657;51.128;5.938;2023-06-01T06:25:52;15.51;63.95
65876;HTU21D;52657;51.128;5.938;2023-06-01T06:28:18;15.67;63.76
65876;HTU21D;52657;51.128;5.938;2023-06-01T06:30:44;15.83;63.18
65876;HTU21D;52657;51.128;5.938;2023-06-01T06:33:10;16.05;62.82
65876;HTU21D;52657;51.128;5.938;2023-06-01T06:35:36;16.35;62.09
65876;HTU21D;52657;51.128;5.938;2023-06-01T06:38:04;16.62;60.93
65876;HTU21D;52657;51.128;5.938;2023-06-01T06:40:30;16.73;59.98
65876;HTU21D;52657;51.128;5.938;2023-06-01T06:42:55;16.92;59.66
65876;HTU21D;52657;51.128;5.938;2023-06-01T06:45:21;17.17;58.63
65876;HTU21D;52657;51.128;5.938;2023-06-01T06:47:47;17.23;57.67
65876;HTU21D;52657;51.128;5.938;2023-06-01T06:50:14;17.41;58.22
65876;HTU21D;52657;51.128;5.938;2023-06-01T06:52:40;17.99;56.92
65876;HTU21D;52657;51.128;5.938;2023-06-01T06:55:06;18.35;56.16
65876;HTU21D;52657;51.128;5.938;2023-06-01T06:57:32;18.94;54.97
65876;HTU21D;52657;51.128;5.938;2023-06-01T06:59:59;19.57;51.85
65876;HTU21D;52657;51.128;5.938;2023-06-01T07:02:26;19.60;50.89
65876;HTU21D;52657;51.128;5.938;2023-06-01T07:04:52;19.75;51.14
65876;HTU21D;52657;51.128;5.938;2023-06-01T07:07:17;20.26;50.80
65876;HTU21D;52657;51.128;5.938;2023-06-01T07:09:46;20.65;48.57
65876;HTU21D;52657;51.128;5.938;2023-06-01T07:12:12;20.86;47.99
65876;HTU21D;52657;51.128;5.938;2023-06-01T07:14:38;20.99;46.65
65876;HTU21D;52657;51.128;5.938;2023-06-01T07:17:04;21.11;46.77
65876;HTU21D;52657;51.128;5.938;2023-06-01T07:19:29;21.38;46.30
65876;HTU21D;52657;51.128;5.938;2023-06-01T07:22:01;21.79;44.36
65876;HTU21D;52657;51.128;5.938;2023-06-01T07:24:27;21.74;44.40
65876;HTU21D;52657;51.128;5.938;2023-06-01T07:26:54;21.70;44.72
65876;HTU21D;52657;51.128;5.938;2023-06-01T07:29:24;21.79;44.14
65876;HTU21D;52657;51.128;5.938;2023-06-01T07:31:50;21.76;43.86
65876;HTU21D;52657;51.128;5.938;2023-06-01T07:34:17;21.75;44.43
65876;HTU21D;52657;51.128;5.938;2023-06-01T07:36:46;21.91;43.96
65876;HTU21D;52657;51.128;5.938;2023-06-01T07:39:15;22.11;43.71
65876;HTU21D;52657;51.128;5.938;2023-06-01T07:41:43;22.27;43.08
65876;HTU21D;52657;51.128;5.938;2023-06-01T07:44:09;22.36;42.87
65876;HTU21D;52657;51.128;5.938;2023-06-01T07:46:35;22.42;43.18
65876;HTU21D;52657;51.128;5.938;2023-06-01T07:49:01;22.75;42.68
65876;HTU21D;52657;51.128;5.938;2023-06-01T07:51:28;22.95;41.56
65876;HTU21D;52657;51.128;5.938;2023-06-01T07:53:55;23.16;41.22
65876;HTU21D;52657;51.128;5.938;2023-06-01T07:56:24;23.13;41.00
65876;HTU21D;52657;51.128;5.938;2023-06-01T07:58:54;23.23;40.24
65876;HTU21D;52657;51.128;5.938;2023-06-01T08:01:20;23.24;39.64
65876;HTU21D;52657;51.128;5.938;2023-06-01T08:03:46;23.06;39.81
65876;HTU21D;52657;51.128;5.938;2023-06-01T08:06:12;22.91;40.76
65876;HTU21D;52657;51.128;5.938;2023-06-01T08:08:39;23.09;40.70
65876;HTU21D;52657;51.128;5.938;2023-06-01T08:11:07;23.40;39.56
65876;HTU21D;52657;51.128;5.938;2023-06-01T08:13:33;23.41;39.95
65876;HTU21D;52657;51.128;5.938;2023-06-01T08:16:02;23.55;39.15
65876;HTU21D;52657;51.128;5.938;2023-06-01T08:18:31;23.62;39.14
65876;HTU21D;52657;51.128;5.938;2023-06-01T08:20:57;23.71;38.58
65876;HTU21D;52657;51.128;5.938;2023-06-01T08:23:23;23.77;38.23
65876;HTU21D;52657;51.128;5.938;2023-06-01T08:25:49;23.50;38.66
65876;HTU21D;52657;51.128;5.938;2023-06-01T08:28:15;23.43;39.27
65876;HTU21D;52657;51.128;5.938;2023-06-01T08:30:40;23.31;39.47
65876;HTU21D;52657;51.128;5.938;2023-06-01T08:33:06;23.21;39.45
65876;HTU21D;52657;51.128;5.938;2023-06-01T08:35:32;23.05;39.15
65876;HTU21D;52657;51.128;5.938;2023-06-01T08:38:00;23.08;39.33
65876;HTU21D;52657;51.128;5.938;2023-06-01T08:40:26;22.96;40.30
65876;HTU21D;52657;51.128;5.938;2023-06-01T08:42:59;23.13;39.39
65876;HTU21D;52657;51.128;5.938;2023-06-01T08:45:25;23.17;39.32
65876;HTU21D;52657;51.128;5.938;2023-06-01T08:47:55;23.24;39.51
65876;HTU21D;52657;51.128;5.938;2023-06-01T08:50:23;23.50;39.27
65876;HTU21D;52657;51.128;5.938;2023-06-01T08:52:53;23.65;38.24
65876;HTU21D;52657;51.128;5.938;2023-06-01T08:55:23;23.54;38.09
65876;HTU21D;52657;51.128;5.938;2023-06-01T08:57:49;23.32;38.53
65876;HTU21D;52657;51.128;5.938;2023-06-01T09:00:17;23.25;39.15
65876;HTU21D;52657;51.128;5.938;2023-06-01T09:02:43;23.15;39.20
65876;HTU21D;52657;51.128;5.938;2023-06-01T09:05:10;23.10;39.05
65876;HTU21D;52657;51.128;5.938;2023-06-01T09:07:37;23.06;39.32
65876;HTU21D;52657;51.128;5.938;2023-06-01T09:10:04;22.97;39.68
65876;HTU21D;52657;51.128;5.938;2023-06-01T09:12:30;22.82;39.23
65876;HTU21D;52657;51.128;5.938;2023-06-01T09:15:12;22.65;39.83
65876;HTU21D;52657;51.128;5.938;2023-06-01T09:17:40;22.58;40.07
65876;HTU21D;52657;51.128;5.938;2023-06-01T09:20:11;22.52;40.37
65876;HTU21D;52657;51.128;5.938;2023-06-01T09:22:42;22.60;40.52
65876;HTU21D;52657;51.128;5.938;2023-06-01T09:25:09;22.78;40.45
65876;HTU21D;52657;51.128;5.938;2023-06-01T09:27:52;23.05;39.74
65876;HTU21D;52657;51.128;5.938;2023-06-01T09:30:20;23.13;39.90
65876;HTU21D;52657;51.128;5.938;2023-06-01T09:32:47;23.32;40.23
65876;HTU21D;52657;51.128;5.938;2023-06-01T09:35:21;23.66;39.40
65876;HTU21D;52657;51.128;5.938;2023-06-01T09:38:02;23.83;38.87
65876;HTU21D;52657;51.128;5.938;2023-06-01T09:40:32;24.05;38.43
65876;HTU21D;52657;51.128;5.938;2023-06-01T09:42:58;24.34;38.01
65876;HTU21D;52657;51.128;5.938;2023-06-01T09:45:24;24.43;37.55
65876;HTU21D;52657;51.128;5.938;2023-06-01T09:47:52;24.39;37.69
65876;HTU21D;52657;51.128;5.938;2023-06-01T09:50:38;24.32;37.24
65876;HTU21D;52657;51.128;5.938;2023-06-01T09:53:05;24.30;37.55
65876;HTU21D;52657;51.128;5.938;2023-06-01T09:55:31;24.42;37.59
65876;HTU21D;52657;51.128;5.938;2023-06-01T09:58:22;24.47;36.93
65876;HTU21D;52657;51.128;5.938;2023-06-01T10:00:49;24.42;37.58
65876;HTU21D;52657;51.128;5.938;2023-06-01T10:03:17;24.62;36.49
65876;HTU21D;52657;51.128;5.938;2023-06-01T10:05:44;24.60;36.52
65876;HTU21D;52657;51.128;5.938;2023-06-01T10:08:14;24.48;37.14
65876;HTU21D;52657;51.128;5.938;2023-06-01T10:10:48;24.61;36.78
65876;HTU21D;52657;51.128;5.938;2023-06-01T10:13:15;24.54;37.31
65876;HTU21D;52657;51.128;5.938;2023-06-01T10:15:41;24.47;37.15
65876;HTU21D;52657;51.128;5.938;2023-06-01T10:18:07;24.41;36.87
65876;HTU21D;52657;51.128;5.938;2023-06-01T10:20:34;24.43;36.59
65876;HTU21D;52657;51.128;5.938;2023-06-01T10:23:01;24.50;36.59
65876;HTU21D;52657;51.128;5.938;2023-06-01T10:25:51;24.73;36.27
65876;HTU21D;52657;51.128;5.938;2023-06-01T10:28:18;24.87;35.89
65876;HTU21D;52657;51.128;5.938;2023-06-01T10:30:44;24.73;35.48
65876;HTU21D;52657;51.128;5.938;2023-06-01T10:33:13;24.69;35.76
65876;HTU21D;52657;51.128;5.938;2023-06-01T10:40:43;24.54;35.67
65876;HTU21D;52657;51.128;5.938;2023-06-01T10:46:03;24.59;35.86
65876;HTU21D;52657;51.128;5.938;2023-06-01T10:51:22;24.54;36.50
65876;HTU21D;52657;51.128;5.938;2023-06-01T10:53:50;24.66;36.26
65876;HTU21D;52657;51.128;5.938;2023-06-01T10:56:26;24.65;36.24
65876;HTU21D;52657;51.128;5.938;2023-06-01T11:01:44;24.97;35.34
65876;HTU21D;52657;51.128;5.938;2023-06-01T11:04:11;24.98;35.54
65876;HTU21D;52657;51.128;5.938;2023-06-01T11:06:41;25.03;34.37
65876;HTU21D;52657;51.128;5.938;2023-06-01T11:09:09;24.97;34.94
65876;HTU21D;52657;51.128;5.938;2023-06-01T11:14:18;25.17;34.79
65876;HTU21D;52657;51.128;5.938;2023-06-01T11:16:44;25.14;35.04
65876;HTU21D;52657;51.128;5.938;2023-06-01T11:19:17;25.10;34.93
65876;HTU21D;52657;51.128;5.938;2023-06-01T11:21:44;24.97;35.44
65876;HTU21D;52657;51.128;5.938;2023-06-01T11:24:15;25.10;35.51
65876;HTU21D;52657;51.128;5.938;2023-06-01T11:29:26;25.20;35.05
65876;HTU21D;52657;51.128;5.938;2023-06-01T11:34:34;25.25;34.20
65876;HTU21D;52657;51.128;5.938;2023-06-01T11:37:04;25.09;34.04
65876;HTU21D;52657;51.128;5.938;2023-06-01T11:39:34;24.99;34.18
65876;HTU21D;52657;51.128;5.938;2023-06-01T11:42:07;24.91;34.02
65876;HTU21D;52657;51.128;5.938;2023-06-01T11:44:35;24.60;34.84
65876;HTU21D;52657;51.128;5.938;2023-06-01T11:47:02;24.61;35.36
65876;HTU21D;52657;51.128;5.938;2023-06-01T11:49:28;24.80;34.65
65876;HTU21D;52657;51.128;5.938;2023-06-01T11:51:55;24.74;35.15
65876;HTU21D;52657;51.128;5.938;2023-06-01T11:54:26;24.91;35.18
65876;HTU21D;52657;51.128;5.938;2023-06-01T11:56:53;25.00;34.79
65876;HTU21D;52657;51.128;5.938;2023-06-01T11:59:19;25.12;34.95
65876;HTU21D;52657;51.128;5.938;2023-06-01T12:02:17;25.32;34.31
65876;HTU21D;52657;51.128;5.938;2023-06-01T12:05:01;25.31;33.88
65876;HTU21D;52657;51.128;5.938;2023-06-01T12:07:31;25.17;34.34
65876;HTU21D;52657;51.128;5.938;2023-06-01T12:09:58;25.06;34.15
65876;HTU21D;52657;51.128;5.938;2023-06-01T12:12:26;25.06;34.72
65876;HTU21D;52657;51.128;5.938;2023-06-01T12:14:55;25.20;33.87
65876;HTU21D;52657;51.128;5.938;2023-06-01T12:17:21;25.14;34.44
65876;HTU21D;52657;51.128;5.938;2023-06-01T12:19:50;25.22;33.84
65876;HTU21D;52657;51.128;5.938;2023-06-01T12:22:17;25.27;33.73
65876;HTU21D;52657;51.128;5.938;2023-06-01T12:24:44;25.25;33.92
65876;HTU21D;52657;51.128;5.938;2023-06-01T12:27:19;25.15;34.50
65876;HTU21D;52657;51.128;5.938;2023-06-01T12:29:46;25.01;34.86
65876;HTU21D;52657;51.128;5.938;2023-06-01T12:32:15;24.98;34.59
65876;HTU21D;52657;51.128;5.938;2023-06-01T12:34:43;24.93;34.93
65876;HTU21D;52657;51.128;5.938;2023-06-01T12:37:18;24.95;34.54
65876;HTU21D;52657;51.128;5.938;2023-06-01T12:39:52;25.03;34.30
65876;HTU21D;52657;51.128;5.938;2023-06-01T12:42:18;25.21;34.11
65876;HTU21D;52657;51.128;5.938;2023-06-01T12:44:43;25.46;33.90
65876;HTU21D;52657;51.128;5.938;2023-06-01T12:47:10;25.60;33.37
65876;HTU21D;52657;51.128;5.938;2023-06-01T12:49:35;25.44;33.63
65876;HTU21D;52657;51.128;5.938;2023-06-01T12:52:03;25.35;33.65
65876;HTU21D;52657;51.128;5.938;2023-06-01T12:54:32;25.38;33.58
65876;HTU21D;52657;51.128;5.938;2023-06-01T12:56:57;25.42;33.37
65876;HTU21D;52657;51.128;5.938;2023-06-01T12:59:23;25.46;33.52
65876;HTU21D;52657;51.128;5.938;2023-06-01T13:01:49;25.75;32.04
65876;HTU21D;52657;51.128;5.938;2023-06-01T13:04:15;25.64;32.08
65876;HTU21D;52657;51.128;5.938;2023-06-01T13:06:40;25.57;31.37
65876;HTU21D;52657;51.128;5.938;2023-06-01T13:09:06;25.52;31.51
65876;HTU21D;52657;51.128;5.938;2023-06-01T13:11:36;25.51;31.85
65876;HTU21D;52657;51.128;5.938;2023-06-01T13:14:02;25.51;31.59
65876;HTU21D;52657;51.128;5.938;2023-06-01T13:16:27;25.64;31.32
65876;HTU21D;52657;51.128;5.938;2023-06-01T13:18:53;25.68;31.35
65876;HTU21D;52657;51.128;5.938;2023-06-01T13:21:19;25.69;31.06
65876;HTU21D;52657;51.128;5.938;2023-06-01T13:23:45;25.73;31.18
65876;HTU21D;52657;51.128;5.938;2023-06-01T13:26:11;25.89;30.99
65876;HTU21D;52657;51.128;5.938;2023-06-01T13:28:40;25.74;31.03
65876;HTU21D;52657;51.128;5.938;2023-06-01T13:31:06;25.59;31.07
65876;HTU21D;52657;51.128;5.938;2023-06-01T13:33:31;25.57;31.44
65876;HTU21D;52657;51.128;5.938;2023-06-01T13:35:57;25.74;31.23
65876;HTU21D;52657;51.128;5.938;2023-06-01T13:38:23;25.94;31.29
65876;HTU21D;52657;51.128;5.938;2023-06-01T13:40:49;25.98;30.85
65876;HTU21D;52657;51.128;5.938;2023-06-01T13:43:16;25.98;31.14
65876;HTU21D;52657;51.128;5.938;2023-06-01T13:45:41;26.10;31.35
65876;HTU21D;52657;51.128;5.938;2023-06-01T13:48:07;26.22;30.96
65876;HTU21D;52657;51.128;5.938;2023-06-01T13:50:33;26.17;30.58
65876;HTU21D;52657;51.128;5.938;2023-06-01T13:52:59;26.18;30.90
65876;HTU21D;52657;51.128;5.938;2023-06-01T13:55:24;26.11;30.89
65876;HTU21D;52657;51.128;5.938;2023-06-01T13:57:51;26.07;30.88
65876;HTU21D;52657;51.128;5.938;2023-06-01T14:00:17;26.07;31.26
65876;HTU21D;52657;51.128;5.938;2023-06-01T14:02:43;26.21;30.95
65876;HTU21D;52657;51.128;5.938;2023-06-01T14:05:09;26.32;30.32
65876;HTU21D;52657;51.128;5.938;2023-06-01T14:07:36;26.36;30.46
65876;HTU21D;52657;51.128;5.938;2023-06-01T14:10:03;26.42;30.32
65876;HTU21D;52657;51.128;5.938;2023-06-01T14:12:31;26.38;29.97
65876;HTU21D;52657;51.128;5.938;2023-06-01T14:14:57;26.17;29.69
65876;HTU21D;52657;51.128;5.938;2023-06-01T14:17:23;26.06;30.37
65876;HTU21D;52657;51.128;5.938;2023-06-01T14:19:49;26.02;30.90
65876;HTU21D;52657;51.128;5.938;2023-06-01T14:22:15;26.07;30.67
65876;HTU21D;52657;51.128;5.938;2023-06-01T14:24:40;26.05;31.06
65876;HTU21D;52657;51.128;5.938;2023-06-01T14:27:06;25.96;31.76
65876;HTU21D;52657;51.128;5.938;2023-06-01T14:29:34;26.04;31.40
65876;HTU21D;52657;51.128;5.938;2023-06-01T14:32:00;25.95;31.21
65876;HTU21D;52657;51.128;5.938;2023-06-01T14:34:26;26.01;30.78
65876;HTU21D;52657;51.128;5.938;2023-06-01T14:36:51;25.89;31.26
65876;HTU21D;52657;51.128;5.938;2023-06-01T14:39:17;25.98;31.26
65876;HTU21D;52657;51.128;5.938;2023-06-01T14:41:43;26.05;31.69
65876;HTU21D;52657;51.128;5.938;2023-06-01T14:44:08;26.12;31.80
65876;HTU21D;52657;51.128;5.938;2023-06-01T14:46:34;26.22;32.02
65876;HTU21D;52657;51.128;5.938;2023-06-01T14:49:00;26.30;31.98
65876;HTU21D;52657;51.128;5.938;2023-06-01T14:51:28;26.47;31.91
65876;HTU21D;52657;51.128;5.938;2023-06-01T14:53:53;26.66;31.39
65876;HTU21D;52657;51.128;5.938;2023-06-01T14:56:19;26.75;30.99
65876;HTU21D;52657;51.128;5.938;2023-06-01T14:58:47;26.73;31.11
65876;HTU21D;52657;51.128;5.938;2023-06-01T15:01:16;26.65;31.62
65876;HTU21D;52657;51.128;5.938;2023-06-01T15:03:44;26.72;31.40
65876;HTU21D;52657;51.128;5.938;2023-06-01T15:06:10;26.68;31.58
65876;HTU21D;52657;51.128;5.938;2023-06-01T15:08:36;26.79;31.80
65876;HTU21D;52657;51.128;5.938;2023-06-01T15:11:01;26.85;30.88
65876;HTU21D;52657;51.128;5.938;2023-06-01T15:13:28;26.75;31.12
65876;HTU21D;52657;51.128;5.938;2023-06-01T15:15:54;26.65;31.48
65876;HTU21D;52657;51.128;5.938;2023-06-01T15:18:20;26.71;31.62
65876;HTU21D;52657;51.128;5.938;2023-06-01T15:20:46;26.82;31.23
65876;HTU21D;52657;51.128;5.938;2023-06-01T15:23:11;26.87;31.33
65876;HTU21D;52657;51.128;5.938;2023-06-01T15:25:40;26.90;31.01
65876;HTU21D;52657;51.128;5.938;2023-06-01T15:28:06;26.89;31.01
65876;HTU21D;52657;51.128;5.938;2023-06-01T15:30:32;26.81;31.34
65876;HTU21D;52657;51.128;5.938;2023-06-01T15:32:59;26.81;31.61
65876;HTU21D;52657;51.128;5.938;2023-06-01T15:35:25;26.96;30.93
65876;HTU21D;52657;51.128;5.938;2023-06-01T15:37:50;26.93;30.82
65876;HTU21D;52657;51.128;5.938;2023-06-01T15:40:16;26.94;30.83
65876;HTU21D;52657;51.128;5.938;2023-06-01T15:42:42;26.93;31.27
65876;HTU21D;52657;51.128;5.938;2023-06-01T15:45:08;26.84;31.75
65876;HTU21D;52657;51.128;5.938;2023-06-01T15:47:35;26.87;32.04
65876;HTU21D;52657;51.128;5.938;2023-06-01T15:50:01;26.81;32.19
65876;HTU21D;52657;51.128;5.938;2023-06-01T15:52:32;26.66;32.45
65876;HTU21D;52657;51.128;5.938;2023-06-01T15:54:57;26.63;32.60